Time;durP1;ratioP1;P1;durP2;ratioP2;P2;SDS_P1;SDS_P2;PMS_P1;PMS_P2;Temp;Humidity;BMP_temperature;BMP_pressure;BME280_temperature;BME280_humidity;BME280_pressure;Samples;Min_cycle;Max_cycle;Signal;HPM_P1;HPM_P2
2023/10/06 00:01:48;;;;;;;0.10;0.10;;;14.70;99.90;;;;;;5009607;28;20301;-81
2023/10/06 00:04:15;;;;;;;0.10;0.10;;;14.70;99.90;;;;;;5011263;28;20061;-82
2023/10/06 00:06:43;;;;;;;0.20;0.20;;;14.70;99.90;;;;;;5009643;28;20038;-82
2023/10/06 00:09:21;;;;;;;0.10;0.10;;;14.70;99.90;;;;;;5011042;28;20130;-82
2023/10/06 00:11:50;;;;;;;0.20;0.20;;;14.60;99.90;;;;;;5004174;28;20047;-81
2023/10/06 00:14:38;;;;;;;0.10;0.10;;;14.60;99.90;;;;;;5002528;28;20076;-82
2023/10/06 00:17:09;;;;;;;0.10;0.10;;;14.70;99.90;;;;;;5010470;28;20162;-82
2023/10/06 00:19:37;;;;;;;0.20;0.20;;;14.60;99.90;;;;;;5012008;28;20128;-82
2023/10/06 00:22:05;;;;;;;0.10;0.10;;;14.60;99.90;;;;;;5010353;28;20042;-83
2023/10/06 00:24:31;;;;;;;0.10;0.10;;;14.60;99.90;;;;;;5012130;28;20489;-81
2023/10/06 00:26:58;;;;;;;0.20;0.20;;;14.60;99.90;;;;;;5010511;28;20042;-82
2023/10/06 00:29:24;;;;;;;0.10;0.10;;;14.60;99.90;;;;;;5010554;28;20034;-82
2023/10/06 00:31:50;;;;;;;0.20;0.20;;;14.60;99.90;;;;;;5008621;28;20042;-82
2023/10/06 00:34:19;;;;;;;0.10;0.10;;;14.60;99.90;;;;;;5011687;28;20038;-83
2023/10/06 00:36:51;;;;;;;0.20;0.20;;;14.60;99.90;;;;;;5008481;28;20050;-81
2023/10/06 00:39:22;;;;;;;0.10;0.10;;;14.60;99.90;;;;;;5011843;28;20049;-82
2023/10/06 00:41:55;;;;;;;0.15;0.15;;;14.60;99.90;;;;;;5009056;28;20512;-82
2023/10/06 00:44:22;;;;;;;0.10;0.10;;;14.60;99.90;;;;;;5010800;28;20127;-82
2023/10/06 00:46:48;;;;;;;0.20;0.20;;;14.60;99.90;;;;;;4998224;28;20498;-81
2023/10/06 00:49:14;;;;;;;0.20;0.20;;;14.60;99.90;;;;;;5004389;28;20046;-82
2023/10/06 00:51:41;;;;;;;0.15;0.15;;;14.60;99.90;;;;;;5007617;28;20046;-84
2023/10/06 00:54:07;;;;;;;0.20;0.20;;;14.60;99.90;;;;;;5006381;28;20053;-82
2023/10/06 00:56:33;;;;;;;0.15;0.15;;;14.60;99.90;;;;;;5004935;28;20041;-80
2023/10/06 00:59:04;;;;;;;0.20;0.20;;;14.60;99.90;;;;;;5007355;28;20516;-81
2023/10/06 01:01:29;;;;;;;0.10;0.10;;;14.60;99.90;;;;;;5010515;28;20049;-82
2023/10/06 01:04:02;;;;;;;0.10;0.10;;;14.60;99.90;;;;;;5008993;28;20042;-83
2023/10/06 01:06:35;;;;;;;0.17;0.17;;;14.70;99.90;;;;;;5008537;28;20041;-82
2023/10/06 01:09:14;;;;;;;0.20;0.20;;;14.60;99.90;;;;;;5010363;28;20057;-80
2023/10/06 01:11:51;;;;;;;0.13;0.13;;;14.70;99.90;;;;;;5005915;28;20053;-81
2023/10/06 01:14:21;;;;;;;0.10;0.10;;;14.70;99.90;;;;;;5011044;28;20521;-82
2023/10/06 01:16:51;;;;;;;0.20;0.20;;;14.70;99.90;;;;;;4999801;28;20037;-79
2023/10/06 01:19:26;;;;;;;0.20;0.20;;;14.70;99.90;;;;;;5006056;28;20054;-80
2023/10/06 01:21:56;;;;;;;0.10;0.10;;;14.70;99.90;;;;;;5008884;28;20120;-79
2023/10/06 01:24:26;;;;;;;0.10;0.10;;;14.70;99.90;;;;;;5011495;28;20056;-82
2023/10/06 01:27:11;;;;;;;0.13;0.13;;;14.60;99.90;;;;;;5009149;28;20045;-81
2023/10/06 01:29:37;;;;;;;0.20;0.20;;;14.70;99.90;;;;;;5011051;28;20042;-81
2023/10/06 01:32:06;;;;;;;0.10;0.10;;;14.70;99.90;;;;;;5007816;28;20574;-80
2023/10/06 01:34:39;;;;;;;0.17;0.17;;;14.60;99.90;;;;;;4991352;28;20050;-82
2023/10/06 01:37:06;;;;;;;0.10;0.10;;;14.70;99.90;;;;;;5003794;28;20052;-82
2023/10/06 01:39:32;;;;;;;0.10;0.10;;;14.70;99.90;;;;;;5008293;28;20465;-80
2023/10/06 01:42:03;;;;;;;0.10;0.10;;;14.70;99.90;;;;;;5008578;28;20102;-81
2023/10/06 01:44:29;;;;;;;0.17;0.17;;;14.70;99.90;;;;;;5011148;28;20053;-82
2023/10/06 01:46:55;;;;;;;0.20;0.20;;;14.70;99.90;;;;;;5007697;28;20081;-82
2023/10/06 01:49:21;;;;;;;0.10;0.10;;;14.70;99.90;;;;;;5025867;28;20042;-80
2023/10/06 01:51:50;;;;;;;0.20;0.20;;;14.70;99.90;;;;;;5016370;28;20045;-80
2023/10/06 01:54:25;;;;;;;0.10;0.10;;;14.70;99.90;;;;;;5010097;28;20073;-81
2023/10/06 01:56:53;;;;;;;0.10;0.10;;;14.70;99.90;;;;;;5007951;28;20386;-82
2023/10/06 01:59:20;;;;;;;0.10;0.10;;;14.70;99.90;;;;;;5009317;28;20046;-82
2023/10/06 02:01:45;;;;;;;0.20;0.20;;;14.70;99.90;;;;;;5013272;28;20037;-80
2023/10/06 02:04:14;;;;;;;0.20;0.20;;;14.70;99.90;;;;;;5007347;28;20401;-80
2023/10/06 02:06:48;;;;;;;0.20;0.20;;;14.70;99.90;;;;;;5006714;28;20073;-81
2023/10/06 02:09:21;;;;;;;0.20;0.20;;;14.70;99.90;;;;;;4998570;28;20030;-82
2023/10/06 02:11:50;;;;;;;0.20;0.20;;;14.70;99.90;;;;;;5005771;28;20042;-81
2023/10/06 02:14:19;;;;;;;0.10;0.10;;;14.70;99.90;;;;;;5009742;28;20034;-82
2023/10/06 02:16:45;;;;;;;0.20;0.20;;;14.70;99.90;;;;;;5001978;28;20099;-82
2023/10/06 02:19:21;;;;;;;0.20;0.20;;;14.60;99.90;;;;;;5010282;28;20069;-81
2023/10/06 02:21:51;;;;;;;0.15;0.15;;;14.70;99.90;;;;;;5011735;28;20038;-82
2023/10/06 02:24:17;;;;;;;0.20;0.20;;;14.70;99.90;;;;;;5012589;28;20053;-81
2023/10/06 02:26:47;;;;;;;0.10;0.10;;;14.70;99.90;;;;;;5009004;28;20076;-81
2023/10/06 02:29:22;;;;;;;0.20;0.20;;;14.70;99.90;;;;;;5007177;28;20038;-80
2023/10/06 02:31:48;;;;;;;0.10;0.10;;;14.70;99.90;;;;;;5010240;28;20620;-81
2023/10/06 02:34:18;;;;;;;1.38;0.30;;;14.80;99.90;;;;;;5010301;28;20050;-80
2023/10/06 02:36:43;;;;;;;0.10;0.10;;;14.80;99.90;;;;;;5009136;28;20049;-81
2023/10/06 02:39:15;;;;;;;0.10;0.10;;;14.80;99.90;;;;;;5012854;28;20551;-81
2023/10/06 02:41:41;;;;;;;0.20;0.20;;;14.80;99.90;;;;;;5009546;28;20052;-81
2023/10/06 02:44:22;;;;;;;0.10;0.10;;;14.80;99.90;;;;;;5011071;28;20501;-82
2023/10/06 02:46:52;;;;;;;0.20;0.20;;;14.80;99.90;;;;;;5023486;28;20046;-81
2023/10/06 02:49:31;;;;;;;0.20;0.20;;;14.80;99.90;;;;;;5009306;28;20084;-81
2023/10/06 02:52:15;;;;;;;0.20;0.20;;;14.80;99.90;;;;;;5010711;28;20041;-82
2023/10/06 02:55:05;;;;;;;0.10;0.10;;;14.80;99.90;;;;;;5008342;28;20724;-81
2023/10/06 02:57:39;;;;;;;0.17;0.17;;;14.70;99.90;;;;;;4994602;28;20042;-81
2023/10/06 03:02:47;;;;;;;0.20;0.20;;;14.70;99.90;;;;;;5009449;28;20100;-81
2023/10/06 03:05:14;;;;;;;0.20;0.20;;;14.70;99.90;;;;;;5007353;28;20046;-81
2023/10/06 03:07:43;;;;;;;0.20;0.20;;;14.70;99.90;;;;;;5000667;28;20124;-82
2023/10/06 03:10:10;;;;;;;0.10;0.10;;;14.70;99.90;;;;;;5008125;28;20038;-81
2023/10/06 03:12:39;;;;;;;0.10;0.10;;;14.70;99.90;;;;;;5007574;28;20125;-81
2023/10/06 03:15:28;;;;;;;0.13;0.13;;;14.70;99.90;;;;;;5011703;28;20033;-82
2023/10/06 03:17:55;;;;;;;0.10;0.10;;;14.70;99.90;;;;;;5008394;28;20080;-82
2023/10/06 03:20:25;;;;;;;0.20;0.20;;;14.70;99.90;;;;;;5011621;28;20375;-81
2023/10/06 03:22:51;;;;;;;0.60;0.20;;;14.70;99.90;;;;;;5010738;28;20042;-80
2023/10/06 03:25:18;;;;;;;0.10;0.10;;;14.70;99.90;;;;;;5009952;28;20041;-81
2023/10/06 03:27:52;;;;;;;0.10;0.10;;;14.70;99.90;;;;;;5011668;28;20100;-82
2023/10/06 03:30:27;;;;;;;0.20;0.20;;;14.70;99.90;;;;;;5011396;28;20069;-80
2023/10/06 03:32:57;;;;;;;0.10;0.10;;;14.70;99.90;;;;;;5011391;28;20042;-81
2023/10/06 03:36:05;;;;;;;0.20;0.20;;;14.70;99.90;;;;;;5011957;28;20092;-80
2023/10/06 03:40:46;;;;;;;0.20;0.20;;;14.70;99.90;;;;;;5011766;28;20536;-81
2023/10/06 03:43:14;;;;;;;0.20;0.20;;;14.70;99.90;;;;;;5011608;28;20049;-82
2023/10/06 03:45:42;;;;;;;0.20;0.20;;;14.70;99.90;;;;;;5010623;28;20045;-82
2023/10/06 03:48:08;;;;;;;0.10;0.10;;;14.70;99.90;;;;;;5011992;28;20050;-81
2023/10/06 03:50:44;;;;;;;0.10;0.10;;;14.70;99.90;;;;;;5012170;28;20038;-82
2023/10/06 03:53:12;;;;;;;0.20;0.20;;;14.70;99.90;;;;;;5009860;28;20444;-82
2023/10/06 03:55:45;;;;;;;0.20;0.20;;;14.70;99.90;;;;;;5011511;28;20037;-82
2023/10/06 03:58:16;;;;;;;0.10;0.10;;;14.60;99.90;;;;;;5010109;28;20053;-82
2023/10/06 04:00:47;;;;;;;0.10;0.10;;;14.60;99.90;;;;;;5011048;28;20046;-81
2023/10/06 04:03:14;;;;;;;0.13;0.13;;;14.60;99.90;;;;;;5011839;28;20088;-81
2023/10/06 04:05:41;;;;;;;0.15;0.15;;;14.60;99.90;;;;;;5011124;28;20077;-82
2023/10/06 04:08:16;;;;;;;0.15;0.15;;;14.60;99.90;;;;;;5010022;28;20385;-81
2023/10/06 04:10:44;;;;;;;0.10;0.10;;;14.60;99.90;;;;;;5008465;28;20081;-81
2023/10/06 04:13:10;;;;;;;0.15;0.15;;;14.60;99.90;;;;;;5008184;28;20521;-81
2023/10/06 04:15:43;;;;;;;0.10;0.10;;;14.60;99.90;;;;;;5011309;28;20152;-80
2023/10/06 04:18:10;;;;;;;0.10;0.10;;;14.60;99.90;;;;;;5009654;28;20045;-80
2023/10/06 04:20:41;;;;;;;0.20;0.20;;;14.60;99.90;;;;;;5006689;28;20052;-81
2023/10/06 04:23:07;;;;;;;0.20;0.20;;;14.60;99.90;;;;;;5010054;28;20053;-80
2023/10/06 04:25:39;;;;;;;0.20;0.20;;;14.60;99.90;;;;;;5009093;28;20042;-81
2023/10/06 04:28:14;;;;;;;0.20;0.20;;;14.60;99.90;;;;;;5010473;28;20056;-82
2023/10/06 04:30:43;;;;;;;0.20;0.20;;;14.60;99.90;;;;;;5001707;28;20038;-80
2023/10/06 04:33:14;;;;;;;0.10;0.10;;;14.60;99.90;;;;;;5006947;28;20057;-79
2023/10/06 04:35:52;;;;;;;0.17;0.17;;;14.60;99.90;;;;;;5009172;28;20104;-80
2023/10/06 04:38:19;;;;;;;0.10;0.10;;;14.60;99.90;;;;;;5010969;28;20041;-81
2023/10/06 04:40:46;;;;;;;0.10;0.10;;;14.50;99.90;;;;;;5009532;28;20042;-80
2023/10/06 04:43:13;;;;;;;0.10;0.10;;;14.60;99.90;;;;;;5009009;28;20490;-81
2023/10/06 04:45:39;;;;;;;0.10;0.10;;;14.60;99.90;;;;;;5010566;28;20111;-80
2023/10/06 04:48:07;;;;;;;0.20;0.20;;;14.50;99.90;;;;;;5010460;28;20070;-81
2023/10/06 04:50:37;;;;;;;0.10;0.10;;;14.50;99.90;;;;;;5009170;28;20575;-81
2023/10/06 04:53:06;;;;;;;0.10;0.10;;;14.50;99.90;;;;;;5011178;28;20553;-82
2023/10/06 04:55:37;;;;;;;0.20;0.20;;;14.50;99.90;;;;;;5011690;28;20045;-81
2023/10/06 04:58:05;;;;;;;0.20;0.20;;;14.50;99.90;;;;;;5012145;28;20041;-81
2023/10/06 05:00:33;;;;;;;0.30;0.30;;;14.50;99.90;;;;;;5009609;28;20037;-80
2023/10/06 05:02:59;;;;;;;0.10;0.10;;;14.20;99.90;;;;;;5006229;28;20516;-79
2023/10/06 05:05:26;;;;;;;0.10;0.10;;;14.50;99.90;;;;;;5013187;28;20089;-81
2023/10/06 05:07:53;;;;;;;0.20;0.20;;;14.50;99.90;;;;;;5012073;28;20405;-80
2023/10/06 05:10:25;;;;;;;0.10;0.10;;;14.50;99.90;;;;;;5012764;28;20053;-81
2023/10/06 05:12:52;;;;;;;0.20;0.20;;;14.50;99.90;;;;;;4998976;28;20058;-81
2023/10/06 05:15:26;;;;;;;0.10;0.10;;;14.60;99.90;;;;;;5001043;28;20443;-81
2023/10/06 05:17:55;;;;;;;0.10;0.10;;;14.60;99.90;;;;;;5012507;28;20056;-81
2023/10/06 05:20:29;;;;;;;0.10;0.10;;;14.60;99.90;;;;;;5008769;28;20757;-82
2023/10/06 05:23:07;;;;;;;0.10;0.10;;;14.50;99.90;;;;;;5012161;28;20080;-80
2023/10/06 05:25:36;;;;;;;0.17;0.17;;;14.50;99.90;;;;;;5012940;28;20042;-81
2023/10/06 05:28:04;;;;;;;0.20;0.20;;;14.50;99.90;;;;;;5013263;28;20481;-81
2023/10/06 05:30:30;;;;;;;0.17;0.17;;;14.60;99.90;;;;;;5020197;28;20133;-81
2023/10/06 05:33:00;;;;;;;0.10;0.10;;;14.50;99.90;;;;;;4999062;28;20041;-81
2023/10/06 05:35:26;;;;;;;0.10;0.10;;;14.50;99.90;;;;;;5015444;28;20088;-80
2023/10/06 05:37:53;;;;;;;0.20;0.20;;;14.50;99.90;;;;;;5007373;28;20053;-81
2023/10/06 05:40:20;;;;;;;0.20;0.20;;;14.50;99.90;;;;;;5007352;28;20502;-79
2023/10/06 05:42:49;;;;;;;0.20;0.20;;;14.50;99.90;;;;;;5011713;28;20054;-81
2023/10/06 05:45:18;;;;;;;0.10;0.10;;;14.50;99.90;;;;;;5007879;28;20053;-81
2023/10/06 05:47:50;;;;;;;0.10;0.10;;;14.50;99.90;;;;;;5011004;28;20128;-80
2023/10/06 05:50:29;;;;;;;0.10;0.10;;;14.50;99.90;;;;;;5012792;28;20107;-81
2023/10/06 05:53:01;;;;;;;0.10;0.10;;;14.40;99.90;;;;;;5010570;28;20053;-80
2023/10/06 05:55:37;;;;;;;0.10;0.10;;;14.40;99.90;;;;;;5013822;28;20548;-81
2023/10/06 05:58:08;;;;;;;0.20;0.20;;;14.40;99.90;;;;;;5011380;28;20085;-82
2023/10/06 06:00:35;;;;;;;0.17;0.17;;;14.40;99.90;;;;;;5010876;28;20042;-83
2023/10/06 06:03:11;;;;;;;0.10;0.10;;;14.40;99.90;;;;;;5001261;28;20092;-81
2023/10/06 06:05:42;;;;;;;0.10;0.10;;;14.40;99.90;;;;;;5000726;28;20045;-81
2023/10/06 06:08:09;;;;;;;0.10;0.10;;;14.40;99.90;;;;;;4998612;28;20049;-80
2023/10/06 06:10:40;;;;;;;0.20;0.20;;;14.40;99.90;;;;;;5013302;28;20126;-81
2023/10/06 06:13:05;;;;;;;0.20;0.20;;;14.40;99.90;;;;;;5014340;28;20865;-81
2023/10/06 06:15:31;;;;;;;0.20;0.20;;;14.40;99.90;;;;;;5015751;28;20037;-81
2023/10/06 06:17:58;;;;;;;0.20;0.20;;;14.40;99.90;;;;;;5015180;28;20049;-82
2023/10/06 06:20:24;;;;;;;0.20;0.20;;;14.40;99.90;;;;;;5013739;28;20075;-82
2023/10/06 06:22:58;;;;;;;0.20;0.20;;;14.40;99.90;;;;;;5016219;28;20073;-80
2023/10/06 06:25:26;;;;;;;0.50;0.50;;;14.40;99.90;;;;;;5012753;28;20478;-81
2023/10/06 06:27:54;;;;;;;0.10;0.10;;;14.40;99.90;;;;;;5013939;28;20107;-79
2023/10/06 06:30:24;;;;;;;0.20;0.20;;;14.50;99.90;;;;;;5015751;28;20041;-79
2023/10/06 06:32:52;;;;;;;0.10;0.10;;;14.50;99.90;;;;;;5015140;28;20033;-80
2023/10/06 06:35:22;;;;;;;0.10;0.10;;;14.50;99.90;;;;;;5009023;28;20041;-71
2023/10/06 06:38:01;;;;;;;0.10;0.10;;;14.50;99.90;;;;;;5034243;28;20045;-71
2023/10/06 06:40:31;;;;;;;0.13;0.13;;;14.50;99.90;;;;;;5028839;28;20050;-71
2023/10/06 06:42:57;;;;;;;0.17;0.17;;;14.50;99.90;;;;;;5015023;28;20493;-71
2023/10/06 06:45:26;;;;;;;0.10;0.10;;;14.50;99.90;;;;;;5014928;28;20412;-71
2023/10/06 06:47:52;;;;;;;0.10;0.10;;;14.50;99.90;;;;;;5012471;28;20041;-73
2023/10/06 06:50:19;;;;;;;0.10;0.10;;;14.60;99.90;;;;;;5009677;28;20049;-71
2023/10/06 06:52:46;;;;;;;0.10;0.10;;;14.60;99.90;;;;;;5023743;28;20045;-70
2023/10/06 06:55:17;;;;;;;0.10;0.10;;;14.60;99.90;;;;;;5029748;28;20128;-71
2023/10/06 06:57:49;;;;;;;0.10;0.10;;;14.60;99.90;;;;;;5013232;28;20078;-71
2023/10/06 07:00:21;;;;;;;0.20;0.20;;;14.60;99.90;;;;;;5001382;28;20485;-71
2023/10/06 07:02:51;;;;;;;0.20;0.20;;;14.60;99.90;;;;;;5006570;28;20045;-71
2023/10/06 07:05:20;;;;;;;0.20;0.20;;;14.70;99.90;;;;;;5014248;28;20121;-71
2023/10/06 07:07:47;;;;;;;0.10;0.10;;;14.70;99.90;;;;;;5030871;28;20041;-71
2023/10/06 07:10:14;;;;;;;1.23;0.30;;;14.70;99.90;;;;;;5013707;28;20049;-71
2023/10/06 07:12:44;;;;;;;0.20;0.20;;;14.70;99.90;;;;;;5005258;28;20045;-71
2023/10/06 07:15:17;;;;;;;0.10;0.10;;;14.80;99.90;;;;;;5024253;28;20065;-71
2023/10/06 07:17:49;;;;;;;0.10;0.10;;;14.80;99.90;;;;;;5024303;28;20497;-71
2023/10/06 07:20:19;;;;;;;0.10;0.10;;;14.80;99.90;;;;;;5012850;28;20048;-71
2023/10/06 07:22:46;;;;;;;0.20;0.20;;;14.90;99.90;;;;;;5013313;28;20118;-71
2023/10/06 07:25:16;;;;;;;0.20;0.20;;;14.90;99.90;;;;;;5010972;28;20053;-71
2023/10/06 07:27:44;;;;;;;0.20;0.20;;;14.90;99.90;;;;;;5012189;28;20041;-71
2023/10/06 07:30:11;;;;;;;0.10;0.10;;;14.90;99.90;;;;;;5013067;28;21062;-71
2023/10/06 07:32:41;;;;;;;0.10;0.10;;;14.90;99.90;;;;;;5012321;28;20429;-71
2023/10/06 07:35:17;;;;;;;0.13;0.13;;;15.00;99.90;;;;;;5014628;28;20053;-71
2023/10/06 07:37:49;;;;;;;0.13;0.13;;;15.00;99.90;;;;;;5009505;28;20045;-71
2023/10/06 07:40:18;;;;;;;0.10;0.10;;;15.00;99.90;;;;;;5031928;28;20482;-71
2023/10/06 07:42:51;;;;;;;0.10;0.10;;;15.00;99.90;;;;;;5014279;28;20045;-71
2023/10/06 07:45:18;;;;;;;0.10;0.10;;;15.10;99.90;;;;;;5014133;28;20099;-72
2023/10/06 07:47:45;;;;;;;0.10;0.10;;;15.10;99.90;;;;;;5011046;28;20157;-72
2023/10/06 07:50:15;;;;;;;0.10;0.10;;;15.20;99.90;;;;;;5014664;28;20421;-72
2023/10/06 07:52:48;;;;;;;0.10;0.10;;;15.10;99.90;;;;;;5006347;28;20053;-72
2023/10/06 07:55:15;;;;;;;0.10;0.10;;;15.10;99.90;;;;;;5011436;28;20065;-72
2023/10/06 07:57:45;;;;;;;0.10;0.10;;;15.10;99.90;;;;;;5009190;28;20049;-72
2023/10/06 08:00:27;;;;;;;0.80;0.30;;;15.10;99.90;;;;;;5013719;28;20045;-72
2023/10/06 08:02:56;;;;;;;0.20;0.20;;;15.10;99.90;;;;;;5011692;28;20401;-71
2023/10/06 08:05:22;;;;;;;0.10;0.10;;;15.20;99.90;;;;;;5011641;28;20056;-72
2023/10/06 08:07:47;;;;;;;0.15;0.15;;;15.20;99.90;;;;;;5011035;28;20053;-71
2023/10/06 08:10:18;;;;;;;0.10;0.10;;;15.20;99.90;;;;;;5028171;28;20061;-72
2023/10/06 08:12:45;;;;;;;0.20;0.20;;;15.20;99.90;;;;;;5026385;28;20037;-72
2023/10/06 08:15:16;;;;;;;0.10;0.10;;;15.20;99.90;;;;;;5011789;28;20045;-72
2023/10/06 08:17:46;;;;;;;0.15;0.15;;;15.20;99.90;;;;;;5006211;28;20041;-71
2023/10/06 08:20:12;;;;;;;0.20;0.20;;;15.30;99.90;;;;;;5009221;28;20049;-71
2023/10/06 08:22:39;;;;;;;0.10;0.10;;;15.30;99.90;;;;;;5008548;28;20524;-71
2023/10/06 08:25:05;;;;;;;0.10;0.10;;;15.30;99.90;;;;;;5008996;28;20481;-71
2023/10/06 08:27:35;;;;;;;0.10;0.10;;;15.40;99.90;;;;;;5015179;28;20374;-72
2023/10/06 08:30:02;;;;;;;0.10;0.10;;;15.40;99.90;;;;;;5020291;28;20102;-71
2023/10/06 08:32:27;;;;;;;0.10;0.10;;;15.50;99.90;;;;;;5025278;28;20041;-72
2023/10/06 08:34:53;;;;;;;0.10;0.10;;;15.50;99.90;;;;;;5038088;28;20033;-71
2023/10/06 08:37:19;;;;;;;0.10;0.10;;;15.50;99.90;;;;;;5031958;28;20060;-72
2023/10/06 08:39:46;;;;;;;0.10;0.10;;;15.50;99.90;;;;;;5017808;28;20053;-72
2023/10/06 08:42:15;;;;;;;0.10;0.10;;;15.60;99.90;;;;;;5011499;28;20049;-72
2023/10/06 08:44:41;;;;;;;0.20;0.20;;;15.60;99.90;;;;;;5013279;28;20072;-70
2023/10/06 08:47:13;;;;;;;0.20;0.20;;;15.70;99.90;;;;;;5023602;28;20118;-71
2023/10/06 08:49:43;;;;;;;0.10;0.10;;;15.70;99.90;;;;;;5017314;28;20045;-70
2023/10/06 08:52:12;;;;;;;0.13;0.13;;;15.80;99.90;;;;;;5028484;28;20053;-70
2023/10/06 08:54:43;;;;;;;0.15;0.15;;;15.90;99.90;;;;;;5031843;28;20080;-72
2023/10/06 08:57:12;;;;;;;0.10;0.10;;;15.90;99.90;;;;;;5023817;28;20400;-72
2023/10/06 08:59:39;;;;;;;0.10;0.10;;;16.00;99.90;;;;;;5013135;28;20067;-71
2023/10/06 09:02:05;;;;;;;0.13;0.13;;;16.00;99.90;;;;;;5010159;28;20051;-71
2023/10/06 09:04:35;;;;;;;0.10;0.10;;;16.10;99.90;;;;;;5021671;28;20127;-71
2023/10/06 09:07:12;;;;;;;0.10;0.10;;;16.10;99.90;;;;;;5026324;28;20052;-71
2023/10/06 09:09:40;;;;;;;0.20;0.20;;;16.20;99.90;;;;;;5028491;28;20469;-72
2023/10/06 09:12:07;;;;;;;0.10;0.10;;;16.20;99.90;;;;;;5009577;28;20056;-71
2023/10/06 09:14:33;;;;;;;0.20;0.20;;;16.30;99.90;;;;;;5018960;28;20041;-72
2023/10/06 09:17:01;;;;;;;0.20;0.20;;;16.30;99.90;;;;;;5012538;28;20190;-72
2023/10/06 09:19:49;;;;;;;0.20;0.20;;;16.40;99.90;;;;;;5014901;28;20084;-71
2023/10/06 09:22:16;;;;;;;0.20;0.20;;;16.40;99.90;;;;;;5017468;28;20042;-72
2023/10/06 09:24:54;;;;;;;0.20;0.20;;;16.50;99.90;;;;;;5011966;28;20101;-71
2023/10/06 09:27:21;;;;;;;0.20;0.20;;;16.50;99.90;;;;;;5011624;28;20045;-71
2023/10/06 09:29:47;;;;;;;0.10;0.10;;;16.30;99.90;;;;;;5011263;28;20058;-71
2023/10/06 09:32:21;;;;;;;0.10;0.10;;;16.60;99.90;;;;;;5012157;28;20041;-72
2023/10/06 09:34:46;;;;;;;0.20;0.20;;;16.70;99.90;;;;;;5024303;28;20124;-72
2023/10/06 09:37:21;;;;;;;0.10;0.10;;;16.70;99.90;;;;;;5028270;28;20171;-72
2023/10/06 09:40:19;;;;;;;0.13;0.13;;;16.80;99.90;;;;;;5015217;28;20041;-71
2023/10/06 09:42:47;;;;;;;0.20;0.20;;;16.80;99.90;;;;;;5029452;28;20080;-72
2023/10/06 09:45:18;;;;;;;0.20;0.20;;;16.90;99.90;;;;;;5011502;28;20069;-71
2023/10/06 09:47:51;;;;;;;0.20;0.20;;;16.90;99.90;;;;;;5029012;28;20048;-71
2023/10/06 09:50:21;;;;;;;0.20;0.20;;;17.00;99.90;;;;;;5011244;28;20496;-71
2023/10/06 09:52:50;;;;;;;0.20;0.20;;;17.10;99.90;;;;;;5011306;28;20045;-71
2023/10/06 09:55:19;;;;;;;0.20;0.20;;;17.10;99.90;;;;;;5009804;28;20050;-71
2023/10/06 09:57:50;;;;;;;0.20;0.20;;;17.20;99.90;;;;;;5008990;28;20052;-72
2023/10/06 10:00:18;;;;;;;0.20;0.20;;;17.30;99.90;;;;;;5012153;28;20041;-71
2023/10/06 10:02:48;;;;;;;0.10;0.10;;;17.30;99.90;;;;;;5010392;28;20045;-72
2023/10/06 10:05:19;;;;;;;0.20;0.20;;;17.30;99.90;;;;;;5007996;28;20049;-71
2023/10/06 10:07:48;;;;;;;0.20;0.20;;;17.40;99.90;;;;;;5015992;28;20065;-71
2023/10/06 10:10:23;;;;;;;0.20;0.20;;;17.50;99.90;;;;;;5010338;28;20053;-72
2023/10/06 10:13:08;;;;;;;0.20;0.20;;;17.50;99.90;;;;;;5009944;28;20041;-71
2023/10/06 10:15:45;;;;;;;0.13;0.13;;;17.50;99.90;;;;;;5017980;28;20045;-72
2023/10/06 10:18:22;;;;;;;0.20;0.20;;;17.60;99.90;;;;;;5011562;28;20060;-72
2023/10/06 10:20:48;;;;;;;0.17;0.17;;;17.60;99.90;;;;;;4991438;28;20038;-72
2023/10/06 10:23:18;;;;;;;0.20;0.20;;;17.80;99.90;;;;;;4994054;28;20081;-71
2023/10/06 10:25:44;;;;;;;0.20;0.20;;;17.80;99.90;;;;;;5010589;28;20385;-72
2023/10/06 10:28:14;;;;;;;0.20;0.20;;;17.90;99.90;;;;;;5009985;28;20052;-72
2023/10/06 10:31:01;;;;;;;0.20;0.20;;;18.00;99.90;;;;;;5011222;28;20048;-71
2023/10/06 10:33:34;;;;;;;0.17;0.17;;;18.10;99.90;;;;;;5007914;28;20069;-73
2023/10/06 10:36:12;;;;;;;0.20;0.20;;;18.10;99.90;;;;;;5020095;28;20471;-71
2023/10/06 10:38:38;;;;;;;0.15;0.15;;;18.20;99.90;;;;;;5028620;28;20080;-72
2023/10/06 10:41:08;;;;;;;0.20;0.20;;;18.10;99.90;;;;;;5030183;28;20393;-71
2023/10/06 10:43:41;;;;;;;0.20;0.20;;;18.30;99.90;;;;;;5014491;28;20051;-71
2023/10/06 10:46:08;;;;;;;0.20;0.20;;;18.30;99.90;;;;;;5014932;28;20521;-71
2023/10/06 10:48:47;;;;;;;0.20;0.20;;;18.30;99.90;;;;;;5013593;28;20130;-71
2023/10/06 10:51:14;;;;;;;0.17;0.17;;;18.40;99.90;;;;;;5014545;28;20045;-71
2023/10/06 10:53:45;;;;;;;0.20;0.20;;;18.40;99.90;;;;;;5013742;28;20238;-71
2023/10/06 10:56:27;;;;;;;0.20;0.20;;;18.40;99.90;;;;;;5013882;28;20053;-71
2023/10/06 10:58:55;;;;;;;0.20;0.20;;;18.40;99.90;;;;;;5014205;28;20455;-72
2023/10/06 11:01:37;;;;;;;0.20;0.20;;;18.50;99.90;;;;;;5013946;28;20050;-72
2023/10/06 11:04:09;;;;;;;0.20;0.20;;;18.60;99.90;;;;;;5008567;28;20061;-71
2023/10/06 11:06:44;;;;;;;0.25;0.25;;;18.70;99.90;;;;;;5011795;28;20053;-71
2023/10/06 11:09:29;;;;;;;0.13;0.13;;;18.80;99.90;;;;;;5008871;28;20090;-72
2023/10/06 11:12:05;;;;;;;0.20;0.20;;;18.90;99.90;;;;;;5012212;28;20041;-71
2023/10/06 11:14:37;;;;;;;0.20;0.20;;;19.00;99.90;;;;;;4995070;28;20418;-71
2023/10/06 11:17:05;;;;;;;0.20;0.20;;;19.10;99.90;;;;;;4994106;28;20437;-71
2023/10/06 11:19:32;;;;;;;0.20;0.20;;;19.20;99.90;;;;;;5024820;28;20545;-72
2023/10/06 11:22:14;;;;;;;0.20;0.20;;;19.20;99.90;;;;;;5013977;28;20099;-72
2023/10/06 11:24:41;;;;;;;0.20;0.20;;;18.90;99.90;;;;;;5013869;28;20057;-72
2023/10/06 11:27:21;;;;;;;0.20;0.20;;;19.40;99.90;;;;;;5012229;28;20077;-69
2023/10/06 11:29:50;;;;;;;0.20;0.20;;;19.30;99.90;;;;;;5013549;28;20064;-69
2023/10/06 11:32:17;;;;;;;0.20;0.20;;;19.40;99.90;;;;;;5029093;28;20034;-70
2023/10/06 11:34:48;;;;;;;0.20;0.20;;;19.50;99.90;;;;;;5011806;28;20052;-70
2023/10/06 11:37:17;;;;;;;0.20;0.20;;;19.60;99.90;;;;;;5012937;28;20060;-70
2023/10/06 11:39:43;;;;;;;0.20;0.20;;;19.70;99.90;;;;;;5013982;28;20045;-70
2023/10/06 11:42:30;;;;;;;0.20;0.20;;;19.90;99.90;;;;;;5029705;28;20457;-70
2023/10/06 11:44:58;;;;;;;0.20;0.20;;;19.90;99.90;;;;;;5030365;28;20052;-70
2023/10/06 11:47:26;;;;;;;0.17;0.17;;;19.90;99.90;;;;;;5014149;28;20041;-70
2023/10/06 11:49:53;;;;;;;0.20;0.20;;;20.00;99.90;;;;;;5013512;28;20056;-70
2023/10/06 11:52:19;;;;;;;0.22;0.22;;;20.10;99.90;;;;;;5012306;28;20053;-70
2023/10/06 11:54:46;;;;;;;0.20;0.20;;;20.10;99.90;;;;;;5026734;28;20057;-70
2023/10/06 11:57:13;;;;;;;0.20;0.20;;;20.10;99.90;;;;;;5030816;28;20045;-70
2023/10/06 11:59:50;;;;;;;0.20;0.20;;;20.10;99.90;;;;;;5011171;28;20429;-69
2023/10/06 12:02:16;;;;;;;0.20;0.20;;;20.40;99.90;;;;;;5013310;28;20408;-69
2023/10/06 12:04:43;;;;;;;0.28;0.28;;;20.20;99.90;;;;;;5012423;28;20481;-69
2023/10/06 12:07:24;;;;;;;0.45;0.43;;;20.30;99.90;;;;;;5029768;28;20045;-69
2023/10/06 12:09:50;;;;;;;0.20;0.20;;;20.30;99.90;;;;;;5013245;28;20056;-70
2023/10/06 12:12:19;;;;;;;0.20;0.20;;;20.40;99.90;;;;;;5012112;28;20045;-70
2023/10/06 12:14:45;;;;;;;0.20;0.20;;;20.40;99.90;;;;;;5013504;28;20051;-70
2023/10/06 12:17:13;;;;;;;0.20;0.20;;;20.40;99.90;;;;;;5013432;28;20130;-70
2023/10/06 12:19:42;;;;;;;0.20;0.20;;;20.50;99.90;;;;;;5012369;28;20053;-70
2023/10/06 12:22:08;;;;;;;0.20;0.20;;;20.60;99.90;;;;;;5011583;28;20120;-70
2023/10/06 12:24:34;;;;;;;0.20;0.20;;;20.70;99.90;;;;;;5012613;28;20052;-70
2023/10/06 12:26:59;;;;;;;0.20;0.20;;;20.70;99.90;;;;;;5012217;28;20045;-71
2023/10/06 12:29:28;;;;;;;0.20;0.20;;;20.90;99.90;;;;;;5030778;28;20041;-71
2023/10/06 12:31:56;;;;;;;0.20;0.20;;;21.10;99.90;;;;;;5001810;28;20068;-71
2023/10/06 12:34:23;;;;;;;0.20;0.20;;;21.10;99.90;;;;;;5009542;28;20041;-72
2023/10/06 12:36:48;;;;;;;0.20;0.20;;;21.20;99.90;;;;;;5022815;28;20041;-71
2023/10/06 12:39:17;;;;;;;0.20;0.20;;;21.30;99.90;;;;;;5013215;28;20132;-71
2023/10/06 12:41:46;;;;;;;0.20;0.20;;;21.30;99.90;;;;;;5007783;28;20224;-70
2023/10/06 12:44:16;;;;;;;0.20;0.20;;;21.40;99.90;;;;;;5011842;28;20057;-70
2023/10/06 12:46:41;;;;;;;0.20;0.20;;;21.50;99.90;;;;;;5010920;28;20072;-70
2023/10/06 12:49:07;;;;;;;0.20;0.20;;;21.40;99.90;;;;;;5012216;28;20033;-71
2023/10/06 12:51:36;;;;;;;0.20;0.20;;;21.30;99.90;;;;;;5007318;28;20132;-70
2023/10/06 12:54:03;;;;;;;0.20;0.20;;;21.20;99.90;;;;;;5010051;28;20108;-70
2023/10/06 12:56:29;;;;;;;0.20;0.20;;;21.00;99.90;;;;;;5008578;28;20041;-74
2023/10/06 12:58:55;;;;;;;0.15;0.15;;;20.90;99.90;;;;;;5009309;28;20479;-75
2023/10/06 13:01:20;;;;;;;0.20;0.20;;;20.80;99.90;;;;;;5009291;28;20050;-74
2023/10/06 13:03:46;;;;;;;0.20;0.20;;;20.70;99.90;;;;;;5006678;28;20347;-75
2023/10/06 13:06:15;;;;;;;0.20;0.20;;;20.50;99.90;;;;;;5006329;28;20041;-75
2023/10/06 13:08:41;;;;;;;0.20;0.20;;;20.50;99.90;;;;;;5001559;28;20125;-74